Time;durP1;ratioP1;P1;durP2;ratioP2;P2;SDS_P1;SDS_P2;PMS_P1;PMS_P2;Temp;Humidity;BMP_temperature;BMP_pressure;BME280_temperature;BME280_humidity;BME280_pressure;Samples;Min_cycle;Max_cycle;Signal;HPM_P1;HPM_P2
2022/06/10 00:00:08;;;;;;;2.25;2.05;;;;;;;18.21;68.71;101797.69;5016104;28;20044;-47
2022/06/10 00:02:34;;;;;;;2.40;2.20;;;;;;;18.17;68.81;101802.84;5021241;28;20025;-47
2022/06/10 00:05:00;;;;;;;3.33;1.90;;;;;;;18.12;68.68;101805.53;5017643;28;20463;-47
2022/06/10 00:07:27;;;;;;;2.40;1.80;;;;;;;18.05;68.71;101807.72;5016721;28;20521;-47
2022/06/10 00:09:53;;;;;;;1.90;1.80;;;;;;;17.98;68.81;101813.44;5017797;28;20025;-47
2022/06/10 00:12:19;;;;;;;2.95;1.90;;;;;;;17.92;68.83;101817.22;5013319;28;20116;-49
2022/06/10 00:14:44;;;;;;;3.33;2.00;;;;;;;17.86;68.83;101807.47;5020909;28;20174;-47
2022/06/10 00:17:10;;;;;;;3.67;2.25;;;;;;;17.79;68.98;101815.88;5016146;28;20041;-48
2022/06/10 00:19:35;;;;;;;3.67;2.92;;;;;;;17.72;69.27;101820.72;5017962;28;20021;-47
2022/06/10 00:22:01;;;;;;;3.13;2.00;;;;;;;17.67;69.28;101828.84;5017246;28;20034;-48
2022/06/10 00:24:27;;;;;;;4.28;2.88;;;;;;;17.61;69.49;101824.50;5016836;28;20029;-47
2022/06/10 00:26:53;;;;;;;5.90;2.05;;;;;;;17.53;69.62;101825.00;5018500;28;20021;-47
2022/06/10 00:29:19;;;;;;;2.55;2.17;;;;;;;17.52;69.66;101836.94;5016406;28;20403;-48
2022/06/10 00:31:44;;;;;;;4.78;2.13;;;;;;;17.51;69.59;101838.84;5015853;28;21093;-48
2022/06/10 00:34:10;;;;;;;3.80;2.20;;;;;;;17.44;69.64;101837.47;5016945;28;20030;-48
2022/06/10 00:36:36;;;;;;;4.35;2.40;;;;;;;17.40;69.88;101842.59;5014759;28;20032;-48
2022/06/10 00:39:02;;;;;;;2.47;2.00;;;;;;;17.33;69.97;101842.03;5017217;28;20037;-48
2022/06/10 00:41:28;;;;;;;8.18;2.00;;;;;;;17.19;70.30;101847.13;5017684;28;20037;-47
2022/06/10 00:43:53;;;;;;;3.75;2.45;;;;;;;17.16;70.32;101857.69;5017601;28;20030;-47
2022/06/10 00:46:30;;;;;;;3.15;1.90;;;;;;;17.09;70.61;101851.72;5020731;28;20499;-48
2022/06/10 00:49:10;;;;;;;3.30;2.60;;;;;;;17.05;70.60;101848.69;5012043;28;20029;-47
2022/06/10 00:51:47;;;;;;;2.50;1.90;;;;;;;17.02;70.75;101851.94;5016263;28;20552;-48
2022/06/10 00:54:36;;;;;;;3.80;2.55;;;;;;;16.94;71.28;101844.34;5017460;28;20041;-47
2022/06/10 00:57:04;;;;;;;3.15;2.53;;;;;;;16.92;71.21;101858.13;5013676;28;20679;-47
2022/06/10 00:59:44;;;;;;;2.92;2.35;;;;;;;16.90;71.46;101870.31;5016994;28;20517;-48
2022/06/10 01:02:16;;;;;;;3.17;2.88;;;;;;;16.81;71.83;101869.16;5018913;28;20509;-47
2022/06/10 01:04:43;;;;;;;4.55;2.47;;;;;;;16.79;71.90;101871.31;5016386;28;20021;-47
2022/06/10 01:07:12;;;;;;;5.00;2.72;;;;;;;16.71;72.24;101872.63;5014966;28;20125;-47
2022/06/10 01:09:39;;;;;;;4.40;2.88;;;;;;;16.68;72.33;101872.31;5016307;28;20399;-49
2022/06/10 01:12:16;;;;;;;4.70;2.53;;;;;;;16.57;73.14;101877.66;5015353;28;20029;-48
2022/06/10 01:14:50;;;;;;;6.72;3.20;;;;;;;16.54;73.05;101883.59;5015014;28;20034;-47
2022/06/10 01:17:43;;;;;;;4.25;3.30;;;;;;;16.49;73.46;101882.72;5014296;28;20045;-48
2022/06/10 01:20:08;;;;;;;3.22;2.92;;;;;;;16.45;73.65;101881.63;5013889;28;20129;-47
2022/06/10 01:22:37;;;;;;;5.15;3.28;;;;;;;16.43;73.68;101895.41;5014796;28;20041;-47
2022/06/10 01:25:16;;;;;;;4.13;3.15;;;;;;;16.35;74.21;101901.31;5012628;28;20034;-47
2022/06/10 01:28:11;;;;;;;6.25;3.58;;;;;;;16.22;74.98;101897.13;5012677;28;20111;-47
2022/06/10 01:30:44;;;;;;;5.25;4.05;;;;;;;16.18;75.08;101900.63;5016318;28;20037;-47
2022/06/10 01:33:26;;;;;;;6.25;4.10;;;;;;;16.12;75.47;101897.03;5015235;28;20021;-48
2022/06/10 01:36:02;;;;;;;5.55;4.18;;;;;;;16.09;75.26;101900.25;5015420;28;20037;-47
2022/06/10 01:38:46;;;;;;;6.30;4.65;;;;;;;15.97;76.30;101895.00;5018502;28;20040;-47
2022/06/10 01:41:32;;;;;;;5.53;4.25;;;;;;;15.87;76.90;101905.72;5011637;28;20022;-47
2022/06/10 01:44:25;;;;;;;5.95;4.00;;;;;;;15.80;77.35;101907.00;5012687;28;20449;-47
2022/06/10 01:47:13;;;;;;;5.15;4.63;;;;;;;15.74;77.54;101900.72;5011781;28;20164;-48
2022/06/10 01:50:00;;;;;;;6.70;4.20;;;;;;;15.69;77.52;101898.78;5015344;28;20080;-47
2022/06/10 01:52:38;;;;;;;6.80;4.35;;;;;;;15.68;77.47;101907.16;5014168;28;20026;-48
2022/06/10 01:55:18;;;;;;;8.27;4.60;;;;;;;15.65;77.55;101913.88;5016427;28;20037;-47
2022/06/10 01:57:51;;;;;;;5.38;4.22;;;;;;;15.65;77.67;101913.88;5019382;28;20664;-47
2022/06/10 02:00:21;;;;;;;6.22;4.78;;;;;;;15.63;78.09;101915.22;5013698;28;20495;-49
2022/06/10 02:03:23;;;;;;;6.45;4.70;;;;;;;15.54;78.51;101919.38;5012374;28;20479;-48
2022/06/10 02:05:54;;;;;;;7.88;4.57;;;;;;;15.52;78.30;101918.81;5009818;28;20044;-49
2022/06/10 02:08:29;;;;;;;6.25;4.82;;;;;;;15.55;77.96;101929.94;5016840;28;20029;-47
2022/06/10 02:11:09;;;;;;;;;;;;;;;15.45;78.32;101929.00;5013075;28;20025;-47
2022/06/10 02:13:40;;;;;;;7.60;4.93;;;;;;;15.48;77.92;101933.91;5019417;28;20008;-48
2022/06/10 02:16:10;;;;;;;6.53;4.20;;;;;;;15.55;77.51;101939.91;5016543;28;20049;-47
2022/06/10 02:18:49;;;;;;;6.22;4.57;;;;;;;15.49;77.80;101944.47;5022443;28;20044;-46
2022/06/10 02:21:33;;;;;;;5.68;4.30;;;;;;;15.52;77.45;101951.22;5021334;28;20033;-48
2022/06/10 02:24:05;;;;;;;6.97;4.83;;;;;;;15.55;77.13;101956.13;5019914;28;20038;-47
2022/06/10 02:26:34;;;;;;;5.60;4.43;;;;;;;15.53;77.30;101953.69;5016468;28;20029;-47
2022/06/10 02:29:03;;;;;;;6.75;5.00;;;;;;;15.49;77.09;101951.75;5014604;28;20056;-47
2022/06/10 02:31:53;;;;;;;6.07;4.57;;;;;;;15.47;77.42;101959.28;5023840;28;20116;-47
2022/06/10 02:34:19;;;;;;;8.25;5.28;;;;;;;15.48;77.25;101952.81;5015442;28;20132;-47
2022/06/10 02:37:03;;;;;;;7.28;5.13;;;;;;;15.44;77.35;101960.59;5021444;28;20112;-47
2022/06/10 02:39:56;;;;;;;6.70;4.90;;;;;;;15.36;77.47;101969.13;5020256;28;20029;-47
2022/06/10 02:42:44;;;;;;;6.03;5.30;;;;;;;15.26;77.72;101975.22;5019678;28;20042;-47
2022/06/10 02:45:18;;;;;;;9.70;4.63;;;;;;;15.21;77.96;101977.00;5020027;28;20383;-47
2022/06/10 02:48:05;;;;;;;7.13;4.88;;;;;;;15.09;78.52;101982.53;5020947;28;20087;-47
2022/06/10 02:50:31;;;;;;;5.38;4.15;;;;;;;15.15;78.12;101986.94;5017959;28;20438;-47
2022/06/10 02:52:58;;;;;;;6.85;4.72;;;;;;;15.11;78.24;101994.72;5014052;28;20017;-48
2022/06/10 02:55:26;;;;;;;10.40;4.55;;;;;;;15.05;78.25;101995.69;5022806;28;20064;-47
2022/06/10 03:01:13;;;;;;;9.43;4.53;;;;;;;14.98;78.42;101992.34;5021958;28;20884;-47
2022/06/10 03:04:04;;;;;;;5.80;4.38;;;;;;;15.00;78.26;102002.91;5018933;28;20506;-47
2022/06/10 03:06:59;;;;;;;5.45;4.22;;;;;;;14.93;78.29;102005.78;5015516;28;20137;-47
2022/06/10 03:09:36;;;;;;;8.32;4.75;;;;;;;14.96;78.14;102005.28;5017365;28;20025;-46
2022/06/10 03:12:39;;;;;;;8.52;4.55;;;;;;;14.90;78.81;102011.69;5019407;28;20040;-47
2022/06/10 03:15:34;;;;;;;6.75;4.47;;;;;;;14.91;78.57;102017.88;5016855;28;20068;-48
2022/06/10 03:18:27;;;;;;;7.90;4.35;;;;;;;14.90;78.79;102018.94;5017082;28;20024;-46
2022/06/10 03:21:20;;;;;;;7.72;3.83;;;;;;;14.88;79.06;102021.06;5017337;28;20118;-47
2022/06/10 03:24:01;;;;;;;9.30;4.75;;;;;;;14.86;79.21;102020.47;5018200;28;20041;-47
2022/06/10 03:26:45;;;;;;;7.35;4.65;;;;;;;14.86;79.45;102023.19;5017355;28;20044;-47
2022/06/10 03:29:32;;;;;;;8.13;4.28;;;;;;;14.81;79.71;102032.84;5016136;28;20028;-47
2022/06/10 03:32:10;;;;;;;6.43;4.85;;;;;;;14.83;79.81;102029.91;5016394;28;20037;-47
2022/06/10 03:34:42;;;;;;;8.63;4.80;;;;;;;14.89;79.48;102036.19;5015263;28;20037;-47
2022/06/10 03:37:11;;;;;;;8.55;5.15;;;;;;;14.98;79.00;102034.72;5015736;28;20029;-47
2022/06/10 03:39:39;;;;;;;7.22;5.20;;;;;;;15.02;78.91;102038.56;5016578;28;20026;-47
2022/06/10 03:42:15;;;;;;;6.93;4.60;;;;;;;15.02;78.90;102041.25;5018223;28;20033;-48
2022/06/10 03:44:43;;;;;;;5.95;4.85;;;;;;;15.03;79.14;102045.59;5020156;28;20041;-47
2022/06/10 03:47:16;;;;;;;9.73;4.95;;;;;;;15.02;79.31;102054.75;5015705;28;20037;-47
2022/06/10 03:50:04;;;;;;;6.35;4.30;;;;;;;15.00;78.96;102059.59;5020676;28;20037;-46
2022/06/10 03:52:34;;;;;;;8.70;5.55;;;;;;;15.06;79.25;102062.09;5020020;28;20108;-46
2022/06/10 03:55:00;;;;;;;6.28;4.22;;;;;;;15.10;79.06;102063.28;5020877;28;20057;-47
2022/06/10 03:57:26;;;;;;;7.18;4.82;;;;;;;15.11;79.28;102062.22;5015070;28;20049;-46
2022/06/10 03:59:51;;;;;;;7.95;5.20;;;;;;;15.14;79.25;102074.38;5018657;28;20076;-47
2022/06/10 04:02:17;;;;;;;7.75;5.25;;;;;;;15.12;79.78;102073.81;5018582;28;20387;-47
2022/06/10 04:04:44;;;;;;;9.05;4.93;;;;;;;15.13;79.84;102077.34;5016149;28;20122;-47
2022/06/10 04:07:11;;;;;;;7.45;5.00;;;;;;;15.17;79.77;102073.91;5016696;28;20033;-47
2022/06/10 04:09:37;;;;;;;7.05;5.70;;;;;;;15.18;79.83;102085.50;5015753;28;20402;-47
2022/06/10 04:12:03;;;;;;;9.20;5.40;;;;;;;15.21;79.77;102085.81;5016499;28;20017;-47
2022/06/10 04:14:29;;;;;;;10.25;6.15;;;;;;;15.27;79.92;102089.44;5018585;28;20564;-47
2022/06/10 04:16:54;;;;;;;7.85;4.90;;;;;;;15.30;79.75;102088.94;5018408;28;20071;-47
2022/06/10 04:19:20;;;;;;;8.30;5.10;;;;;;;15.32;79.61;102093.03;5015809;28;20036;-47
2022/06/10 04:21:46;;;;;;;6.57;5.10;;;;;;;15.37;79.51;102095.81;5017021;28;20476;-48
2022/06/10 04:24:11;;;;;;;6.20;4.72;;;;;;;15.44;79.30;102098.34;5019952;28;20117;-47
2022/06/10 04:26:37;;;;;;;9.23;5.28;;;;;;;15.49;79.42;102103.00;5018753;28;20434;-47
2022/06/10 04:29:03;;;;;;;8.13;4.97;;;;;;;15.45;79.40;102108.09;5019833;28;20057;-47
2022/06/10 04:31:28;;;;;;;7.68;5.25;;;;;;;15.41;79.25;102099.63;5018058;28;20498;-47
2022/06/10 04:33:54;;;;;;;6.68;4.90;;;;;;;15.46;78.88;102111.59;5015394;28;20037;-47
2022/06/10 04:36:20;;;;;;;8.13;4.68;;;;;;;15.47;78.62;102114.06;5014545;28;20030;-48
2022/06/10 04:38:46;;;;;;;10.23;4.93;;;;;;;15.55;78.27;102115.50;5017226;28;20079;-47
2022/06/10 04:41:12;;;;;;;7.47;5.43;;;;;;;15.60;78.11;102121.81;5018361;28;20033;-47
2022/06/10 04:43:38;;;;;;;8.38;5.72;;;;;;;15.61;78.11;102123.47;5012148;28;20017;-47
2022/06/10 04:46:06;;;;;;;9.07;5.63;;;;;;;15.65;78.10;102123.81;5014624;28;20033;-47
2022/06/10 04:48:32;;;;;;;8.45;4.90;;;;;;;15.70;77.86;102121.16;5018474;28;20029;-47
2022/06/10 04:50:59;;;;;;;6.90;5.35;;;;;;;15.75;77.82;102118.53;5018293;28;20029;-47
2022/06/10 04:53:24;;;;;;;5.85;4.70;;;;;;;15.84;77.31;102127.84;5018716;28;20231;-47
2022/06/10 04:55:50;;;;;;;10.63;5.95;;;;;;;15.91;77.29;102125.78;5020654;28;20029;-47
2022/06/10 04:58:16;;;;;;;6.78;5.03;;;;;;;15.97;76.88;102126.66;5014806;28;20033;-47
2022/06/10 05:00:45;;;;;;;9.32;5.25;;;;;;;15.98;75.99;102122.91;5020340;28;20032;-50
2022/06/10 05:03:11;;;;;;;10.13;5.05;;;;;;;15.95;76.17;102124.19;5012032;28;20029;-47
2022/06/10 05:05:37;;;;;;;9.32;5.50;;;;;;;15.96;75.74;102120.44;5015185;28;20053;-47
2022/06/10 05:08:05;;;;;;;10.98;5.93;;;;;;;15.99;75.83;102130.75;5015414;28;20033;-48
2022/06/10 05:10:31;;;;;;;8.57;5.88;;;;;;;15.99;75.31;102128.06;5018601;28;20049;-46
2022/06/10 05:12:57;;;;;;;9.68;5.32;;;;;;;15.99;75.11;102130.75;5017868;28;20029;-47
2022/06/10 05:15:23;;;;;;;7.72;5.88;;;;;;;15.94;75.30;102136.09;5019818;28;20102;-46
2022/06/10 05:17:50;;;;;;;8.48;5.82;;;;;;;15.94;75.48;102132.56;5017910;28;20029;-47
2022/06/10 05:20:20;;;;;;;12.95;5.95;;;;;;;15.92;75.07;102135.53;5020238;28;20392;-46
2022/06/10 05:22:46;;;;;;;8.80;5.68;;;;;;;16.02;75.45;102126.75;5016582;28;20490;-47
2022/06/10 05:25:12;;;;;;;7.82;5.40;;;;;;;16.15;74.84;102134.44;5017639;28;20038;-47
2022/06/10 05:27:37;;;;;;;8.38;6.57;;;;;;;16.09;74.49;102134.66;5020600;28;20022;-47
2022/06/10 05:30:05;;;;;;;8.77;5.60;;;;;;;16.11;73.82;102132.50;5015576;28;20033;-46
2022/06/10 05:32:30;;;;;;;7.57;5.63;;;;;;;16.12;73.62;102128.75;5019223;28;20025;-47
2022/06/10 05:34:56;;;;;;;7.30;5.40;;;;;;;16.14;73.23;102137.41;5016704;28;20040;-47
2022/06/10 05:37:24;;;;;;;8.95;5.43;;;;;;;16.20;73.00;102144.53;5017936;28;20504;-46
2022/06/10 05:39:51;;;;;;;8.25;5.28;;;;;;;16.27;73.04;102147.84;5014373;28;20402;-46
2022/06/10 05:42:17;;;;;;;9.55;5.40;;;;;;;16.30;72.94;102155.47;5018650;28;20084;-47
2022/06/10 05:44:45;;;;;;;10.80;5.22;;;;;;;16.24;72.16;102159.19;5017966;28;20033;-46
2022/06/10 05:47:19;;;;;;;7.07;4.95;;;;;;;16.23;72.01;102160.25;5018822;28;20483;-46
2022/06/10 05:49:46;;;;;;;11.40;5.65;;;;;;;16.27;72.09;102164.09;5016808;28;20606;-47
2022/06/10 05:52:14;;;;;;;8.45;5.38;;;;;;;16.29;72.07;102167.34;5016203;28;20021;-46
2022/06/10 05:54:44;;;;;;;9.02;5.40;;;;;;;16.36;72.19;102170.72;5017010;28;20037;-47
2022/06/10 05:57:10;;;;;;;8.07;5.32;;;;;;;16.48;71.89;102176.78;5017542;28;20212;-47
2022/06/10 05:59:36;;;;;;;8.30;5.22;;;;;;;16.49;71.50;102183.81;5012629;28;20033;-46
2022/06/10 06:02:08;;;;;;;6.57;4.80;;;;;;;16.50;71.21;102184.66;5015747;28;20450;-46
2022/06/10 06:04:34;;;;;;;9.63;4.82;;;;;;;16.57;70.67;102179.88;5013418;28;21873;-47
2022/06/10 06:06:59;;;;;;;8.25;4.40;;;;;;;16.69;70.50;102185.97;5017913;28;20061;-47
2022/06/10 06:09:26;;;;;;;6.88;4.68;;;;;;;16.74;69.88;102183.34;5013629;28;20061;-48
2022/06/10 06:11:56;;;;;;;7.03;4.18;;;;;;;16.73;69.32;102189.84;5018757;28;20494;-46
2022/06/10 06:14:23;;;;;;;6.32;3.55;;;;;;;16.76;68.84;102186.63;5018362;28;20046;-47
2022/06/10 06:17:06;;;;;;;7.65;3.67;;;;;;;16.79;68.96;102188.81;5021344;28;20079;-47
2022/06/10 06:19:33;;;;;;;6.55;4.20;;;;;;;16.80;68.73;102189.63;5016963;28;20068;-49
2022/06/10 06:21:59;;;;;;;5.65;3.65;;;;;;;16.79;68.64;102198.81;5016801;28;20021;-46
2022/06/10 06:24:26;;;;;;;6.75;4.00;;;;;;;16.81;69.18;102199.38;5020804;28;20177;-47
2022/06/10 06:26:51;;;;;;;7.10;4.20;;;;;;;16.82;69.92;102201.81;5016169;28;20503;-46
2022/06/10 06:29:19;;;;;;;8.52;3.92;;;;;;;16.94;69.45;102209.81;5016347;28;20037;-47
2022/06/10 06:31:44;;;;;;;6.32;3.25;;;;;;;17.08;68.61;102205.63;5016559;28;20032;-47
2022/06/10 06:34:10;;;;;;;3.90;3.00;;;;;;;17.24;68.06;102205.78;5015789;28;20391;-47
2022/06/10 06:36:44;;;;;;;5.63;3.25;;;;;;;17.35;67.47;102205.59;5016573;28;20048;-47
2022/06/10 06:39:09;;;;;;;4.30;2.88;;;;;;;17.47;66.70;102206.25;5017123;28;20029;-47
2022/06/10 06:41:35;;;;;;;3.75;2.85;;;;;;;17.49;66.01;102212.22;5014856;28;20052;-46
2022/06/10 06:44:04;;;;;;;4.53;3.03;;;;;;;17.50;64.90;102216.56;5018292;28;20069;-47
2022/06/10 06:46:31;;;;;;;6.40;2.40;;;;;;;17.57;65.11;102221.75;5016168;28;20026;-50
2022/06/10 06:48:57;;;;;;;6.13;2.50;;;;;;;17.60;64.50;102210.41;5014615;28;20021;-46
2022/06/10 06:51:23;;;;;;;4.85;2.97;;;;;;;17.58;64.03;102217.97;5011838;28;20037;-46
2022/06/10 06:53:48;;;;;;;4.38;2.75;;;;;;;17.55;64.79;102218.47;5013046;28;20590;-48
2022/06/10 06:56:14;;;;;;;6.03;3.20;;;;;;;17.66;64.89;102225.63;5013632;28;20037;-47
2022/06/10 06:58:39;;;;;;;8.05;2.97;;;;;;;17.77;64.27;102223.81;5011157;28;20103;-47
2022/06/10 07:01:05;;;;;;;4.90;2.45;;;;;;;17.90;63.77;102219.84;5015289;28;20121;-48
2022/06/10 07:03:30;;;;;;;4.40;2.65;;;;;;;17.84;63.65;102227.16;5013919;28;20043;-47
2022/06/10 07:05:56;;;;;;;6.63;2.72;;;;;;;17.77;63.67;102226.53;5017720;28;20032;-47
2022/06/10 07:08:30;;;;;;;4.43;2.80;;;;;;;17.83;64.12;102224.69;5017444;28;20037;-46
2022/06/10 07:11:00;;;;;;;4.40;2.60;;;;;;;17.84;63.71;102224.44;5018584;28;20364;-47
2022/06/10 07:13:26;;;;;;;6.00;2.88;;;;;;;18.02;63.72;102224.00;5017812;28;20034;-47
2022/06/10 07:15:53;;;;;;;3.78;2.85;;;;;;;18.02;62.63;102229.44;5018556;28;20240;-46
2022/06/10 07:18:19;;;;;;;6.63;2.60;;;;;;;18.06;63.35;102235.16;5013348;28;21473;-47
2022/06/10 07:20:44;;;;;;;6.70;2.85;;;;;;;18.20;63.12;102228.19;5019114;28;20044;-47
2022/06/10 07:23:11;;;;;;;6.53;2.63;;;;;;;18.31;63.29;102224.44;5014686;28;20034;-47
2022/06/10 07:25:37;;;;;;;4.50;2.15;;;;;;;18.40;62.77;102231.00;5015942;28;20026;-47
2022/06/10 07:28:03;;;;;;;3.63;2.20;;;;;;;18.52;62.42;102224.53;5017690;28;20115;-46
2022/06/10 07:30:31;;;;;;;4.05;2.47;;;;;;;18.61;62.08;102231.06;5018219;28;20029;-46
2022/06/10 07:32:57;;;;;;;3.13;2.20;;;;;;;18.63;61.24;102228.94;5013849;28;20022;-47
2022/06/10 07:35:24;;;;;;;5.15;2.55;;;;;;;18.57;61.47;102224.56;5015940;28;20132;-46
2022/06/10 07:37:50;;;;;;;5.18;2.50;;;;;;;18.65;61.64;102232.19;5015543;28;20056;-46
2022/06/10 07:43:03;;;;;;;5.18;1.90;;;;;;;18.49;60.79;102241.31;5020013;28;20150;-49
2022/06/10 07:45:29;;;;;;;4.20;1.98;;;;;;;18.53;60.56;102231.59;5015343;28;20067;-46
2022/06/10 07:47:55;;;;;;;2.85;2.00;;;;;;;18.57;60.66;102230.78;5014852;28;20479;-46
2022/06/10 07:50:23;;;;;;;3.30;2.45;;;;;;;18.57;60.59;102238.13;5013113;28;20396;-47
2022/06/10 07:52:49;;;;;;;5.07;2.40;;;;;;;18.71;60.55;102236.59;5015295;28;20375;-47
2022/06/10 07:55:16;;;;;;;2.90;2.20;;;;;;;18.80;60.55;102240.41;5017645;28;20544;-46
2022/06/10 07:57:42;;;;;;;3.75;2.10;;;;;;;18.93;60.44;102231.75;5018225;28;20579;-46
2022/06/10 08:00:10;;;;;;;4.10;2.25;;;;;;;19.07;59.78;102239.41;5019186;28;20029;-47
2022/06/10 08:02:37;;;;;;;2.65;1.85;;;;;;;19.13;59.46;102244.56;5018121;28;20013;-46
2022/06/10 08:05:04;;;;;;;4.32;1.80;;;;;;;19.23;59.21;102235.63;5016092;28;20364;-46
2022/06/10 08:07:30;;;;;;;4.28;1.90;;;;;;;19.33;59.34;102232.91;5012681;28;20021;-48
2022/06/10 08:09:55;;;;;;;4.30;2.13;;;;;;;19.42;58.92;102242.16;4972145;28;1388850;-47
2022/06/10 08:12:21;;;;;;;3.65;2.17;;;;;;;19.44;58.15;102237.25;5017538;28;20025;-47
2022/06/10 08:14:47;;;;;;;3.28;1.80;;;;;;;19.37;57.42;102239.41;5011960;28;20387;-47
2022/06/10 08:17:13;;;;;;;5.20;1.67;;;;;;;19.40;58.05;102238.91;5016079;28;20026;-47
2022/06/10 08:19:39;;;;;;;2.20;1.58;;;;;;;19.37;57.48;102239.41;5016246;28;20029;-47
2022/06/10 08:24:50;;;;;;;3.60;1.83;;;;;;;19.46;57.13;102242.41;5017490;28;20037;-47
2022/06/10 08:27:16;;;;;;;4.03;1.70;;;;;;;19.56;57.50;102247.88;5011230;28;20157;-47
2022/06/10 08:29:42;;;;;;;4.70;1.90;;;;;;;19.47;56.77;102247.59;5018843;28;20029;-47
2022/06/10 08:32:08;;;;;;;3.00;1.77;;;;;;;19.41;56.66;102245.16;5022887;28;21141;-46
2022/06/10 08:34:33;;;;;;;3.08;1.55;;;;;;;19.36;56.03;102248.66;5017663;28;20025;-47
2022/06/10 08:37:01;;;;;;;3.45;1.77;;;;;;;19.47;57.07;102250.31;5018817;28;20022;-47
2022/06/10 08:39:28;;;;;;;4.05;1.70;;;;;;;19.42;56.77;102253.03;5016148;28;20397;-47
2022/06/10 08:42:29;;;;;;;3.63;1.80;;;;;;;19.55;57.70;102248.97;5010417;28;20106;-47
2022/06/10 08:44:56;;;;;;;4.20;1.50;;;;;;;19.74;57.09;102246.50;5021127;28;20048;-46
2022/06/10 08:47:27;;;;;;;2.92;1.52;;;;;;;19.94;56.87;102245.69;5015082;28;20033;-47
2022/06/10 08:50:23;;;;;;;5.00;1.90;;;;;;;20.04;56.38;102246.47;5018332;28;20113;-47
2022/06/10 08:52:54;;;;;;;4.30;1.60;;;;;;;20.23;56.12;102257.59;5018995;28;20021;-47
2022/06/10 08:55:48;;;;;;;1.98;1.48;;;;;;;20.27;55.37;102249.69;5015812;28;20029;-47
2022/06/10 08:58:35;;;;;;;2.75;1.60;;;;;;;20.37;54.85;102244.22;5013988;28;20335;-48
2022/06/10 09:01:10;;;;;;;3.58;1.85;;;;;;;20.39;54.87;102245.56;5014556;28;20442;-48
2022/06/10 09:03:44;;;;;;;5.78;1.80;;;;;;;20.41;54.65;102248.84;5016199;28;20021;-47
2022/06/10 09:06:18;;;;;;;1.95;1.58;;;;;;;20.60;55.44;102249.06;5017470;28;20080;-47
2022/06/10 09:08:48;;;;;;;4.70;1.50;;;;;;;20.65;54.09;102248.22;5021386;28;20030;-47
2022/06/10 09:11:25;;;;;;;2.20;1.30;;;;;;;20.38;52.55;102251.28;5018200;28;20043;-48
2022/06/10 09:13:59;;;;;;;2.90;1.70;;;;;;;20.43;53.35;102251.28;5023273;28;20021;-48
2022/06/10 09:16:35;;;;;;;3.03;1.60;;;;;;;20.61;54.28;102244.41;5016872;28;20037;-47
2022/06/10 09:19:13;;;;;;;4.68;1.38;;;;;;;20.72;52.48;102252.28;5024842;28;20475;-47
2022/06/10 09:22:01;;;;;;;4.30;1.30;;;;;;;21.01;53.67;102240.69;5024107;28;20033;-47
2022/06/10 09:24:48;;;;;;;3.08;1.40;;;;;;;21.18;53.64;102245.72;5018700;28;20641;-47
2022/06/10 09:27:21;;;;;;;1.45;1.20;;;;;;;21.19;51.84;102250.09;5016608;28;20025;-48
2022/06/10 09:29:47;;;;;;;2.65;1.63;;;;;;;21.00;51.29;102239.84;5025586;28;20491;-47
2022/06/10 09:32:41;;;;;;;2.08;1.30;;;;;;;21.08;51.81;102252.06;5023375;28;20031;-47
2022/06/10 09:35:34;;;;;;;1.77;1.15;;;;;;;21.11;50.28;102256.97;5016562;28;20049;-47
2022/06/10 09:38:06;;;;;;;2.97;1.25;;;;;;;21.31;50.86;102256.03;5016022;28;20550;-47
2022/06/10 09:40:50;;;;;;;6.55;1.27;;;;;;;21.32;49.74;102257.66;5012671;28;20041;-48
2022/06/10 09:43:18;;;;;;;1.25;1.15;;;;;;;21.27;49.52;102247.59;5017536;28;20017;-47
2022/06/10 09:46:02;;;;;;;2.20;1.17;;;;;;;21.34;49.78;102250.00;5014332;28;20033;-48
2022/06/10 09:48:57;;;;;;;2.92;1.33;;;;;;;21.35;49.16;102249.72;5020337;28;20228;-48
2022/06/10 09:51:38;;;;;;;4.57;1.30;;;;;;;21.35;49.64;102247.00;5017445;28;20388;-46
2022/06/10 09:54:13;;;;;;;3.63;1.48;;;;;;;21.44;50.09;102260.03;5016037;28;20621;-46
2022/06/10 09:56:57;;;;;;;;;;;;;;;21.51;49.14;102250.41;5020162;28;20038;-47
2022/06/10 09:59:41;;;;;;;5.18;1.80;;;;;;;21.76;48.27;102257.59;5018026;28;19913;-46
2022/06/10 10:02:28;;;;;;;3.35;1.08;;;;;;;21.63;47.05;102248.16;5016955;28;20071;-47
2022/06/10 10:05:36;;;;;;;1.88;1.15;;;;;;;21.67;48.22;102242.91;5018417;28;20495;-47
2022/06/10 10:08:17;;;;;;;8.57;1.58;;;;;;;21.63;47.42;102245.41;5018992;28;20505;-46
2022/06/10 10:11:04;;;;;;;1.27;1.08;;;;;;;21.76;47.54;102256.78;5017690;28;20029;-48
2022/06/10 10:13:48;;;;;;;5.47;1.27;;;;;;;21.79;47.00;102256.19;5014615;28;20080;-47
2022/06/10 10:16:29;;;;;;;2.63;1.23;;;;;;;21.76;47.53;102252.13;5016662;28;20041;-47
2022/06/10 10:19:13;;;;;;;2.10;1.25;;;;;;;21.89;48.19;102237.78;5016380;28;20450;-46
2022/06/10 10:22:26;;;;;;;1.55;1.10;;;;;;;22.16;47.48;102239.19;5015904;28;20033;-47
2022/06/10 10:24:51;;;;;;;2.67;1.10;;;;;;;22.24;46.98;102236.63;4960574;28;20121;-46
2022/06/10 10:27:22;;;;;;;1.63;1.17;;;;;;;22.27;46.27;102248.91;4958513;28;20039;-47
2022/06/10 10:29:54;;;;;;;3.35;1.40;;;;;;;22.34;45.67;102238.44;4991698;28;20044;-48
2022/06/10 10:32:24;;;;;;;3.15;1.40;;;;;;;22.11;45.63;102245.53;5018536;28;20040;-46
2022/06/10 10:34:57;;;;;;;2.47;1.23;;;;;;;21.97;46.45;102242.63;5017000;28;20034;-46
2022/06/10 10:37:29;;;;;;;2.28;1.05;;;;;;;22.00;46.66;102242.06;5021028;28;20483;-47
2022/06/10 10:40:02;;;;;;;2.78;1.17;;;;;;;21.98;46.98;102248.91;5045975;22;20029;-82
2022/06/10 10:42:33;;;;;;;3.47;1.48;;;;;;;22.08;47.04;102237.09;5050287;28;20541;-82
2022/06/10 10:45:06;;;;;;;2.13;1.30;;;;;;;22.09;46.90;102238.75;5046260;28;20028;-82
2022/06/10 10:47:34;;;;;;;3.10;1.10;;;;;;;22.08;46.56;102237.09;5047786;28;20159;-82
2022/06/10 10:50:06;;;;;;;4.40;1.15;;;;;;;22.05;46.33;102237.66;5047188;28;20025;-82
2022/06/10 10:52:34;;;;;;;1.85;1.33;;;;;;;22.09;45.80;102239.56;5047050;28;20033;-82
2022/06/10 10:55:13;;;;;;;2.17;0.90;;;;;;;22.09;46.38;102242.28;5050067;28;20021;-83
2022/06/10 10:57:52;;;;;;;2.05;1.10;;;;;;;21.95;45.42;102239.38;5046187;28;20033;-83
2022/06/10 11:00:18;;;;;;;3.88;1.15;;;;;;;21.87;46.39;102242.72;5046523;28;20020;-82
2022/06/10 11:02:55;;;;;;;2.33;1.20;;;;;;;21.92;46.25;102239.16;5047478;28;20025;-83
2022/06/10 11:05:36;;;;;;;1.75;0.90;;;;;;;21.97;46.89;102231.72;5047424;28;20029;-82
2022/06/10 11:08:39;;;;;;;5.30;1.33;;;;;;;21.98;46.91;102233.34;5048824;28;20032;-83
2022/06/10 11:11:35;;;;;;;4.07;1.20;;;;;;;21.90;44.85;102238.59;5017405;28;20025;-82
2022/06/10 11:14:05;;;;;;;2.05;1.10;;;;;;;22.20;47.33;102234.78;5050123;28;20028;-80
2022/06/10 11:16:56;;;;;;;2.65;1.30;;;;;;;22.47;45.84;102232.28;5053621;28;20021;-80
2022/06/10 11:19:26;;;;;;;2.78;1.52;;;;;;;22.70;45.37;102235.25;5047484;28;20033;-81
2022/06/10 11:22:17;;;;;;;1.65;1.20;;;;;;;22.63;44.12;102223.91;5051356;28;20021;-83
2022/06/10 11:24:46;;;;;;;1.55;1.10;;;;;;;22.51;43.85;102227.84;5040145;28;20135;-83
2022/06/10 11:27:35;;;;;;;1.83;1.10;;;;;;;22.52;44.28;102226.75;5050382;28;20025;-82
2022/06/10 11:30:10;;;;;;;2.85;1.30;;;;;;;22.40;43.61;102226.34;5049711;28;20467;-83
2022/06/10 11:32:39;;;;;;;3.83;1.17;;;;;;;22.53;45.26;102225.63;5049065;28;20021;-82
2022/06/10 11:35:36;;;;;;;2.78;1.10;;;;;;;22.75;44.13;102227.81;5045001;28;20114;-79
2022/06/10 11:38:02;;;;;;;4.10;1.45;;;;;;;22.94;44.64;102216.91;5037612;28;20044;-80
2022/06/10 11:40:37;;;;;;;2.20;0.90;;;;;;;23.07;42.21;102227.09;5043370;28;20039;-81
2022/06/10 11:43:14;;;;;;;3.20;0.90;;;;;;;22.97;40.83;102224.50;5039807;28;20013;-79
2022/06/10 11:45:48;;;;;;;2.97;1.00;;;;;;;23.04;42.27;102222.22;5037144;28;20442;-80
2022/06/10 11:48:37;;;;;;;1.13;0.60;;;;;;;23.20;40.86;102212.69;5041602;28;20025;-80
2022/06/10 11:51:18;;;;;;;1.80;0.88;;;;;;;23.46;40.84;102204.84;5044205;28;20032;-80
2022/06/10 11:54:03;;;;;;;1.83;1.00;;;;;;;23.65;40.27;102210.31;5040224;28;20033;-80
2022/06/10 11:59:45;;;;;;;3.15;0.93;;;;;;;23.64;40.01;102207.88;5048814;28;19978;-80
2022/06/10 12:02:25;;;;;;;2.35;0.90;;;;;;;23.71;39.62;102203.66;5044940;28;20032;-80